Time;durP1;ratioP1;P1;durP2;ratioP2;P2;SDS_P1;SDS_P2;PMS_P1;PMS_P2;Temp;Humidity;BMP_temperature;BMP_pressure;BME280_temperature;BME280_humidity;BME280_pressure;Samples;Min_cycle;Max_cycle;Signal;HPM_P1;HPM_P2
2023/07/02 00:00:21;;;;;;;2.10;1.23;;;27.20;47.60;;;;;;4982923;28;88085;-48
2023/07/02 00:02:50;;;;;;;2.33;1.20;;;27.10;47.50;;;;;;4999912;28;87571;-48
2023/07/02 00:05:19;;;;;;;3.00;1.57;;;27.20;47.60;;;;;;4984720;28;87622;-48
2023/07/02 00:07:47;;;;;;;3.10;1.60;;;27.10;47.50;;;;;;4993777;28;89573;-47
2023/07/02 00:10:16;;;;;;;1.13;1.03;;;27.10;47.60;;;;;;4998368;28;89170;-48
2023/07/02 00:12:44;;;;;;;2.23;1.70;;;27.10;48.20;;;;;;4983902;28;88450;-47
2023/07/02 00:15:12;;;;;;;4.17;1.97;;;27.10;47.60;;;;;;4981832;28;88315;-48
2023/07/02 00:17:42;;;;;;;1.53;1.43;;;27.10;47.50;;;;;;4995842;28;88619;-47
2023/07/02 00:20:15;;;;;;;3.30;2.10;;;27.10;47.50;;;;;;4982327;28;88954;-48
2023/07/02 00:22:44;;;;;;;5.50;1.50;;;27.10;47.50;;;;;;4991753;28;88782;-48
2023/07/02 00:25:14;;;;;;;4.73;1.50;;;27.10;47.50;;;;;;4982670;28;87687;-47
2023/07/02 00:27:42;;;;;;;2.40;1.67;;;27.10;47.40;;;;;;4995386;28;88439;-48
2023/07/02 00:30:11;;;;;;;5.63;2.00;;;27.10;48.00;;;;;;5001354;28;88272;-48
2023/07/02 00:32:39;;;;;;;3.47;1.50;;;27.10;47.30;;;;;;4987422;28;87341;-47
2023/07/02 00:35:09;;;;;;;6.17;2.13;;;27.10;47.30;;;;;;4982816;28;87170;-48
2023/07/02 00:37:37;;;;;;;3.40;2.07;;;27.10;47.20;;;;;;4997389;28;88423;-47
2023/07/02 00:40:07;;;;;;;2.97;2.13;;;27.10;47.10;;;;;;4999181;28;88085;-48
2023/07/02 00:42:35;;;;;;;4.13;2.00;;;27.10;47.10;;;;;;4985397;28;87735;-48
2023/07/02 00:45:04;;;;;;;2.47;2.10;;;27.10;47.00;;;;;;4981967;28;89066;-47
2023/07/02 00:47:34;;;;;;;1.87;1.43;;;27.10;47.00;;;;;;4987860;28;88764;-48
2023/07/02 00:50:02;;;;;;;3.10;1.50;;;27.10;46.90;;;;;;4992442;28;88968;-48
2023/07/02 00:52:32;;;;;;;8.90;2.03;;;27.10;46.90;;;;;;4997864;28;88756;-47
2023/07/02 00:55:00;;;;;;;3.87;1.70;;;27.00;46.80;;;;;;4993816;28;87669;-48
2023/07/02 00:57:29;;;;;;;5.37;2.23;;;27.10;46.80;;;;;;4990678;28;88652;-48
2023/07/02 01:00:00;;;;;;;2.93;1.73;;;27.00;46.70;;;;;;4984841;28;88169;-48
2023/07/02 01:02:29;;;;;;;3.93;1.80;;;27.10;46.70;;;;;;4987052;28;87719;-48
2023/07/02 01:04:59;;;;;;;3.37;1.67;;;27.00;46.60;;;;;;4990027;28;87587;-47
2023/07/02 01:07:30;;;;;;;6.73;2.20;;;27.00;46.60;;;;;;4983567;28;88672;-48
2023/07/02 01:09:59;;;;;;;3.77;1.83;;;27.00;46.50;;;;;;4984855;28;89998;-48
2023/07/02 01:12:27;;;;;;;3.33;2.00;;;27.00;46.50;;;;;;4987111;28;87684;-47
2023/07/02 01:14:56;;;;;;;1.80;1.33;;;27.00;46.50;;;;;;4981255;28;87328;-47
2023/07/02 01:17:25;;;;;;;3.57;1.73;;;27.00;46.40;;;;;;4983207;28;89642;-48
2023/07/02 01:19:58;;;;;;;1.77;1.40;;;27.00;46.40;;;;;;4990320;28;89182;-47
2023/07/02 01:22:28;;;;;;;3.60;1.93;;;27.00;46.30;;;;;;4989726;28;87833;-48
2023/07/02 01:24:56;;;;;;;3.33;1.87;;;27.00;46.20;;;;;;5000932;28;87678;-48
2023/07/02 01:27:25;;;;;;;8.17;2.63;;;27.00;46.20;;;;;;4980673;28;87340;-48
2023/07/02 01:29:53;;;;;;;3.23;1.70;;;27.00;46.10;;;;;;4980612;28;88533;-47
2023/07/02 01:32:21;;;;;;;5.67;2.10;;;27.00;46.10;;;;;;4986790;28;87577;-48
2023/07/02 01:34:52;;;;;;;3.13;1.80;;;26.90;46.00;;;;;;4997308;28;87806;-48
2023/07/02 01:37:21;;;;;;;5.30;2.40;;;27.00;46.00;;;;;;4983435;28;88701;-47
2023/07/02 01:39:49;;;;;;;1.90;1.60;;;27.00;45.90;;;;;;4980621;28;89532;-47
2023/07/02 01:42:18;;;;;;;4.07;2.03;;;27.00;46.50;;;;;;4985504;28;88954;-47
2023/07/02 01:44:48;;;;;;;3.27;1.87;;;27.00;45.90;;;;;;5000697;28;87281;-47
2023/07/02 01:47:16;;;;;;;2.87;1.67;;;26.90;45.70;;;;;;4981513;28;88573;-47
2023/07/02 01:49:45;;;;;;;2.30;1.27;;;27.00;45.70;;;;;;4980538;28;89130;-48
2023/07/02 01:52:13;;;;;;;4.07;1.87;;;26.90;45.60;;;;;;4980607;28;87974;-48
2023/07/02 01:54:42;;;;;;;5.77;1.70;;;27.00;45.60;;;;;;4980846;28;87660;-47
2023/07/02 01:57:10;;;;;;;3.03;1.50;;;26.90;45.50;;;;;;4993298;28;89833;-47
2023/07/02 01:59:38;;;;;;;11.30;1.83;;;26.90;46.10;;;;;;4979903;28;89187;-47
2023/07/02 02:02:07;;;;;;;2.80;1.57;;;26.90;45.40;;;;;;4995571;28;89785;-47
2023/07/02 02:04:35;;;;;;;2.23;1.63;;;26.90;45.40;;;;;;5000571;28;87733;-47
2023/07/02 02:07:03;;;;;;;2.17;1.60;;;26.90;45.30;;;;;;4997002;28;88572;-47
2023/07/02 02:09:32;;;;;;;3.17;1.50;;;26.90;45.30;;;;;;4980384;28;88258;-47
2023/07/02 02:12:02;;;;;;;5.80;2.47;;;26.90;45.30;;;;;;4992935;28;87942;-48
2023/07/02 02:14:30;;;;;;;3.43;2.20;;;26.90;45.20;;;;;;5000295;28;87685;-48
2023/07/02 02:16:58;;;;;;;5.50;2.13;;;26.80;45.10;;;;;;4997398;28;89609;-48
2023/07/02 02:19:26;;;;;;;7.27;2.20;;;26.90;45.20;;;;;;4984873;28;87899;-47
2023/07/02 02:21:54;;;;;;;3.20;1.80;;;26.90;45.10;;;;;;4982393;28;89104;-47
2023/07/02 02:24:22;;;;;;;6.63;2.03;;;26.80;45.60;;;;;;4979779;28;87815;-48
2023/07/02 02:26:51;;;;;;;4.93;2.13;;;26.90;45.00;;;;;;4980898;28;89316;-47
2023/07/02 02:29:20;;;;;;;1.60;1.10;;;26.90;45.00;;;;;;4979937;28;88535;-47
2023/07/02 02:31:48;;;;;;;3.93;1.30;;;26.80;44.80;;;;;;4989354;28;87702;-47
2023/07/02 02:34:16;;;;;;;3.97;1.60;;;26.80;44.80;;;;;;4990188;28;87425;-47
2023/07/02 02:36:45;;;;;;;3.93;1.30;;;26.80;44.70;;;;;;4989871;28;88555;-47
2023/07/02 02:39:13;;;;;;;4.10;1.70;;;26.80;44.70;;;;;;4994448;28;89188;-47
2023/07/02 02:41:42;;;;;;;3.83;2.10;;;26.80;44.70;;;;;;4983460;28;87727;-48
2023/07/02 02:44:10;;;;;;;2.10;1.50;;;26.80;44.60;;;;;;4984882;28;87645;-47
2023/07/02 02:46:39;;;;;;;3.33;1.93;;;26.80;44.60;;;;;;4983179;28;88583;-47
2023/07/02 02:49:07;;;;;;;4.90;1.90;;;26.80;44.60;;;;;;4986887;28;89867;-47
2023/07/02 02:51:36;;;;;;;3.20;1.60;;;26.80;44.60;;;;;;4995818;28;87480;-47
2023/07/02 02:54:04;;;;;;;5.13;1.97;;;26.80;44.50;;;;;;4986330;28;87656;-47
2023/07/02 02:56:32;;;;;;;4.50;2.00;;;26.80;44.50;;;;;;5002950;28;88768;-47
2023/07/02 02:59:00;;;;;;;4.73;2.23;;;26.70;44.40;;;;;;4999928;28;89129;-47
2023/07/02 03:01:29;;;;;;;4.20;1.93;;;26.80;44.50;;;;;;4982937;28;89110;-47
2023/07/02 03:04:00;;;;;;;3.83;1.50;;;26.80;44.40;;;;;;4994286;28;87425;-47
2023/07/02 03:06:30;;;;;;;4.43;1.70;;;26.70;44.30;;;;;;4987156;28;87998;-47
2023/07/02 03:08:58;;;;;;;2.80;1.50;;;26.70;44.30;;;;;;5000393;28;89145;-47
2023/07/02 03:11:26;;;;;;;3.57;1.90;;;26.70;44.30;;;;;;4982834;28;87740;-48
2023/07/02 03:13:54;;;;;;;5.20;1.90;;;26.70;44.30;;;;;;4982630;28;88104;-47
2023/07/02 03:16:22;;;;;;;3.70;2.00;;;26.70;44.30;;;;;;5002431;28;87436;-47
2023/07/02 03:18:50;;;;;;;4.30;1.67;;;26.70;44.30;;;;;;5002625;28;89143;-47
2023/07/02 03:21:20;;;;;;;3.40;2.17;;;26.70;44.30;;;;;;4983894;28;88013;-47
2023/07/02 03:23:48;;;;;;;3.90;2.00;;;26.70;44.30;;;;;;5001079;28;87658;-47
2023/07/02 03:26:16;;;;;;;6.43;2.60;;;26.70;44.30;;;;;;4982842;28;89763;-47
2023/07/02 03:28:44;;;;;;;3.13;1.77;;;26.70;44.20;;;;;;4982408;28;88414;-47
2023/07/02 03:31:12;;;;;;;3.43;1.93;;;26.70;44.30;;;;;;4997986;28;87361;-47
2023/07/02 03:33:40;;;;;;;1.57;1.43;;;26.60;44.10;;;;;;5002304;28;87530;-47
2023/07/02 03:36:08;;;;;;;6.67;2.10;;;26.60;44.10;;;;;;4997915;28;88605;-47
2023/07/02 03:38:38;;;;;;;4.43;1.67;;;26.60;44.10;;;;;;4983611;28;89177;-47
2023/07/02 03:41:06;;;;;;;5.33;2.73;;;26.60;44.10;;;;;;4995628;28;89897;-47
2023/07/02 03:43:34;;;;;;;4.30;2.13;;;26.60;44.10;;;;;;5002498;28;87769;-48
2023/07/02 03:46:02;;;;;;;5.40;2.53;;;26.60;44.00;;;;;;4999144;28;89680;-47
2023/07/02 03:48:30;;;;;;;4.40;2.07;;;26.60;44.00;;;;;;5002104;28;89669;-47
2023/07/02 03:50:58;;;;;;;2.77;1.70;;;26.60;44.00;;;;;;4989260;28;87878;-47
2023/07/02 03:53:26;;;;;;;3.30;2.20;;;26.60;44.00;;;;;;4996024;28;87680;-47
2023/07/02 03:55:55;;;;;;;5.30;2.30;;;26.60;43.90;;;;;;4990901;28;88730;-47
2023/07/02 03:58:23;;;;;;;8.53;2.73;;;26.60;43.90;;;;;;4981935;28;89302;-47
2023/07/02 04:00:51;;;;;;;4.73;2.03;;;26.60;43.90;;;;;;4998882;28;87395;-47
2023/07/02 04:03:19;;;;;;;5.03;2.23;;;26.60;44.50;;;;;;5001539;28;88021;-47
2023/07/02 04:05:48;;;;;;;5.80;2.13;;;26.60;43.80;;;;;;5000166;28;88494;-48
2023/07/02 04:08:16;;;;;;;6.93;2.77;;;26.60;44.40;;;;;;4990439;28;88312;-47
2023/07/02 04:10:44;;;;;;;4.60;2.67;;;26.60;43.80;;;;;;4996327;28;88962;-47
2023/07/02 04:13:14;;;;;;;8.53;2.47;;;26.70;43.80;;;;;;5001873;28;88537;-48
2023/07/02 04:15:42;;;;;;;6.53;2.27;;;26.60;43.70;;;;;;4987311;28;88778;-48
2023/07/02 04:18:10;;;;;;;3.37;2.23;;;26.70;43.70;;;;;;4981873;28;88969;-47
2023/07/02 04:20:39;;;;;;;5.37;2.00;;;26.70;43.70;;;;;;4994145;28;88839;-47
2023/07/02 04:23:07;;;;;;;6.87;2.30;;;26.60;43.60;;;;;;4983095;28;87688;-47
2023/07/02 04:25:35;;;;;;;5.43;2.63;;;26.70;43.70;;;;;;4992748;28;89701;-47
2023/07/02 04:28:24;;;;;;;3.67;2.10;;;26.70;43.60;;;;;;5000905;28;91260;-47
2023/07/02 04:30:52;;;;;;;3.57;2.10;;;26.70;43.50;;;;;;4988006;28;87491;-47
2023/07/02 04:33:21;;;;;;;3.13;2.10;;;27.00;43.40;;;;;;4984179;28;87628;-47
2023/07/02 04:35:49;;;;;;;3.83;2.50;;;27.40;43.00;;;;;;4989324;28;89713;-48
2023/07/02 04:38:17;;;;;;;2.97;1.97;;;27.50;42.70;;;;;;4998558;28;89323;-47
2023/07/02 04:40:45;;;;;;;4.83;2.33;;;27.40;42.70;;;;;;4990800;28;89061;-48
2023/07/02 04:43:18;;;;;;;5.77;2.20;;;27.40;42.80;;;;;;4981786;28;87683;-47
2023/07/02 04:45:48;;;;;;;6.57;2.23;;;27.30;42.80;;;;;;4991377;28;88275;-48
2023/07/02 04:48:16;;;;;;;5.60;2.40;;;27.40;42.80;;;;;;5001315;28;88080;-47
2023/07/02 04:50:44;;;;;;;3.87;1.90;;;27.30;42.80;;;;;;4991773;28;88985;-47
2023/07/02 04:53:13;;;;;;;4.43;2.43;;;27.20;42.90;;;;;;4995467;28;87888;-47
2023/07/02 04:55:41;;;;;;;4.93;2.00;;;27.10;43.00;;;;;;4991017;28;88777;-47
2023/07/02 04:58:09;;;;;;;3.37;1.70;;;27.00;43.00;;;;;;4981264;28;89088;-47
2023/07/02 05:00:37;;;;;;;3.87;2.10;;;26.90;43.00;;;;;;4987794;28;87887;-47
2023/07/02 05:03:07;;;;;;;9.17;2.80;;;26.90;43.60;;;;;;5000982;28;87638;-49
2023/07/02 05:05:35;;;;;;;5.27;1.97;;;26.80;43.00;;;;;;4994692;28;89745;-47
2023/07/02 05:08:04;;;;;;;6.40;2.27;;;26.80;43.00;;;;;;4992056;28;89368;-48
2023/07/02 05:10:33;;;;;;;3.97;1.80;;;26.80;43.00;;;;;;4994553;28;87670;-47
2023/07/02 05:13:01;;;;;;;3.43;1.63;;;26.80;43.00;;;;;;4981208;28;87721;-48
2023/07/02 05:15:29;;;;;;;4.07;2.03;;;26.90;43.00;;;;;;4985092;28;88553;-47
2023/07/02 05:17:57;;;;;;;2.37;1.33;;;26.90;42.90;;;;;;5000065;28;90111;-47
2023/07/02 05:20:27;;;;;;;3.67;1.77;;;26.90;42.90;;;;;;4997300;28;89997;-47
2023/07/02 05:22:55;;;;;;;7.20;2.00;;;26.90;42.90;;;;;;4988961;28;87660;-47
2023/07/02 05:25:23;;;;;;;3.90;1.53;;;26.90;42.90;;;;;;4997883;28;89621;-47
2023/07/02 05:27:51;;;;;;;3.70;1.87;;;26.90;42.90;;;;;;4980818;28;87303;-47
2023/07/02 05:30:19;;;;;;;4.30;1.63;;;26.80;42.90;;;;;;4981198;28;88048;-47
2023/07/02 05:32:47;;;;;;;4.23;2.00;;;26.80;42.90;;;;;;5000874;28;87654;-47
2023/07/02 05:35:15;;;;;;;2.33;1.50;;;26.80;42.90;;;;;;5000273;28;88273;-47
2023/07/02 05:37:46;;;;;;;6.10;1.97;;;26.80;42.90;;;;;;4980945;28;89338;-47
2023/07/02 05:40:14;;;;;;;3.43;1.57;;;26.80;43.00;;;;;;4980622;28;88787;-48
2023/07/02 05:42:45;;;;;;;3.43;1.67;;;26.80;42.90;;;;;;4999243;28;87824;-47
2023/07/02 05:45:13;;;;;;;5.13;2.20;;;26.80;43.60;;;;;;5000376;28;88632;-47
2023/07/02 05:47:41;;;;;;;5.80;1.70;;;26.80;42.90;;;;;;4982614;28;89576;-47
2023/07/02 05:50:10;;;;;;;2.43;1.50;;;26.70;42.90;;;;;;4980515;28;88779;-47
2023/07/02 05:52:38;;;;;;;4.33;2.10;;;26.70;42.90;;;;;;4996044;28;87665;-47
2023/07/02 05:55:10;;;;;;;3.80;2.13;;;26.70;42.90;;;;;;4998252;28;89779;-47
2023/07/02 05:57:38;;;;;;;4.63;1.70;;;26.70;42.90;;;;;;4980503;28;88801;-47
2023/07/02 06:00:07;;;;;;;3.97;1.83;;;26.70;42.90;;;;;;4981605;28;88734;-47
2023/07/02 06:02:35;;;;;;;4.57;1.83;;;26.60;42.90;;;;;;4995347;28;87730;-47
2023/07/02 06:05:04;;;;;;;3.20;1.70;;;26.70;43.00;;;;;;5000006;28;87555;-47
2023/07/02 06:07:32;;;;;;;4.93;2.10;;;26.60;42.90;;;;;;4985872;28;89027;-47
2023/07/02 06:10:00;;;;;;;6.20;1.73;;;26.70;42.90;;;;;;4985208;28;89812;-47
2023/07/02 06:12:30;;;;;;;3.77;1.70;;;26.60;42.90;;;;;;4992369;28;87584;-48
2023/07/02 06:14:58;;;;;;;4.50;1.40;;;26.70;43.00;;;;;;5002290;28;87442;-48
2023/07/02 06:17:26;;;;;;;2.37;1.50;;;26.70;42.90;;;;;;4991428;28;89203;-48
2023/07/02 06:19:54;;;;;;;3.37;1.30;;;26.70;42.90;;;;;;4983440;28;87764;-47
2023/07/02 06:22:22;;;;;;;3.27;1.53;;;26.70;42.80;;;;;;4993802;28;87257;-48
2023/07/02 06:24:51;;;;;;;2.33;1.57;;;26.70;42.80;;;;;;4985700;28;89793;-47
2023/07/02 06:27:19;;;;;;;2.20;1.53;;;26.70;42.80;;;;;;4989315;28;89085;-48
2023/07/02 06:29:48;;;;;;;4.13;1.70;;;26.80;42.80;;;;;;5000538;28;88727;-48
2023/07/02 06:32:16;;;;;;;3.53;1.67;;;26.80;42.70;;;;;;4991727;28;88248;-48
2023/07/02 06:34:45;;;;;;;5.53;1.90;;;26.90;42.70;;;;;;5000228;28;89737;-48
2023/07/02 06:37:13;;;;;;;3.60;1.73;;;26.80;42.60;;;;;;4989010;28;88024;-47
2023/07/02 06:39:41;;;;;;;3.17;1.77;;;26.90;42.90;;;;;;4999894;28;88863;-47
2023/07/02 06:42:10;;;;;;;4.37;2.70;;;26.90;42.60;;;;;;4994594;28;87640;-47
2023/07/02 06:44:38;;;;;;;2.97;2.13;;;26.90;42.70;;;;;;4980216;28;89634;-47
2023/07/02 06:47:07;;;;;;;4.33;2.33;;;26.80;42.60;;;;;;4984059;28;88076;-47
2023/07/02 06:49:35;;;;;;;6.73;2.80;;;26.80;42.60;;;;;;5000074;28;87765;-47
2023/07/02 06:52:04;;;;;;;4.47;2.90;;;26.80;42.50;;;;;;4988505;28;87705;-47
2023/07/02 06:54:32;;;;;;;9.70;3.00;;;26.80;42.50;;;;;;5000070;28;88315;-47
2023/07/02 06:57:00;;;;;;;5.90;3.00;;;26.80;42.40;;;;;;4995367;28;90323;-47
2023/07/02 06:59:28;;;;;;;5.33;3.07;;;26.90;43.00;;;;;;4979918;28;87683;-47
2023/07/02 07:01:56;;;;;;;5.93;2.40;;;26.90;42.40;;;;;;4987793;28;88653;-47
2023/07/02 07:04:26;;;;;;;3.47;2.37;;;26.90;42.30;;;;;;4979842;28;88485;-48
2023/07/02 07:06:55;;;;;;;5.03;2.17;;;27.00;42.30;;;;;;4990850;28;88047;-47
2023/07/02 07:09:23;;;;;;;5.77;2.50;;;26.90;42.10;;;;;;4989651;28;88518;-47
2023/07/02 07:11:51;;;;;;;5.03;2.17;;;27.00;42.20;;;;;;4987767;28;87789;-47
2023/07/02 07:14:19;;;;;;;2.90;2.37;;;27.00;42.20;;;;;;4987560;28;89781;-47
2023/07/02 07:16:47;;;;;;;4.27;2.30;;;27.00;42.10;;;;;;4991386;28;89205;-48
2023/07/02 07:19:15;;;;;;;4.87;2.27;;;27.00;42.10;;;;;;4986333;28;88850;-47
2023/07/02 07:21:45;;;;;;;6.13;2.03;;;27.00;42.00;;;;;;4986395;28;88257;-47
2023/07/02 07:24:13;;;;;;;6.27;2.37;;;27.00;42.00;;;;;;4993014;28;88775;-47
2023/07/02 07:26:41;;;;;;;4.27;1.93;;;27.00;42.00;;;;;;4988925;28;88767;-47
2023/07/02 07:29:09;;;;;;;4.77;1.50;;;27.10;41.90;;;;;;4999439;28;88813;-47
2023/07/02 07:31:38;;;;;;;3.53;2.03;;;27.10;41.80;;;;;;4981133;28;87771;-47
2023/07/02 07:34:06;;;;;;;4.13;1.83;;;27.10;41.70;;;;;;4986660;28;88536;-48
2023/07/02 07:36:34;;;;;;;6.03;2.13;;;27.20;41.70;;;;;;4984226;28;89074;-47
2023/07/02 07:39:04;;;;;;;5.47;2.10;;;27.10;41.60;;;;;;4984360;28;89495;-47
2023/07/02 07:41:32;;;;;;;2.20;1.50;;;27.10;41.60;;;;;;4997995;28;87529;-47
2023/07/02 07:44:01;;;;;;;3.40;1.60;;;27.20;41.60;;;;;;4985458;28;87779;-47
2023/07/02 07:46:29;;;;;;;2.10;1.50;;;27.20;41.60;;;;;;4986467;28;88968;-47
2023/07/02 07:48:57;;;;;;;2.70;1.60;;;27.20;41.50;;;;;;4994191;28;88712;-47
2023/07/02 07:51:26;;;;;;;3.10;1.33;;;27.20;41.50;;;;;;4998658;28;87740;-47
2023/07/02 07:53:57;;;;;;;2.90;1.17;;;27.10;41.40;;;;;;4990309;28;89507;-47
2023/07/02 07:56:27;;;;;;;3.70;1.50;;;27.10;41.40;;;;;;4999005;28;89236;-47
2023/07/02 07:58:55;;;;;;;2.47;1.47;;;27.10;41.30;;;;;;4997051;28;87583;-47
2023/07/02 08:01:23;;;;;;;7.17;1.60;;;27.10;41.30;;;;;;4992618;28;88787;-47
2023/07/02 08:03:51;;;;;;;2.27;1.30;;;27.10;41.40;;;;;;4987242;28;88432;-47
2023/07/02 08:06:20;;;;;;;3.00;1.50;;;27.10;41.50;;;;;;4993708;28;87490;-47
2023/07/02 08:08:48;;;;;;;1.97;1.60;;;27.10;41.50;;;;;;4998294;28;87561;-47
2023/07/02 08:11:16;;;;;;;2.40;1.40;;;27.10;41.50;;;;;;4978235;28;87935;-47
2023/07/02 08:13:46;;;;;;;2.80;1.60;;;27.20;41.70;;;;;;4979425;28;87690;-47
2023/07/02 08:16:14;;;;;;;7.90;1.30;;;27.20;41.70;;;;;;4978344;28;89318;-47
2023/07/02 08:18:42;;;;;;;4.07;1.57;;;27.20;41.80;;;;;;4989192;28;88817;-47
2023/07/02 08:21:11;;;;;;;2.37;1.20;;;27.20;41.90;;;;;;4998719;28;87579;-47
2023/07/02 08:23:39;;;;;;;2.23;1.70;;;27.30;42.00;;;;;;4989121;28;87549;-48
2023/07/02 08:26:07;;;;;;;1.80;1.50;;;27.20;42.00;;;;;;4998721;28;89374;-47
2023/07/02 08:28:35;;;;;;;1.93;1.23;;;27.30;42.10;;;;;;4992383;28;87464;-47
2023/07/02 08:31:05;;;;;;;2.97;1.30;;;27.30;42.10;;;;;;4978952;28;87264;-47
2023/07/02 08:33:33;;;;;;;3.50;1.70;;;27.30;42.20;;;;;;4984475;28;89669;-47
2023/07/02 08:36:01;;;;;;;3.40;1.43;;;27.30;42.30;;;;;;4997515;28;88993;-47
2023/07/02 08:38:30;;;;;;;5.23;1.13;;;27.30;42.30;;;;;;4997486;28;89799;-48
2023/07/02 08:40:58;;;;;;;2.83;1.47;;;27.30;42.40;;;;;;4998640;28;87684;-48
2023/07/02 08:43:27;;;;;;;3.73;1.40;;;27.30;42.50;;;;;;4994266;28;89652;-48
2023/07/02 08:45:55;;;;;;;2.40;1.60;;;27.30;42.50;;;;;;4978158;28;89181;-48
2023/07/02 08:48:26;;;;;;;1.80;1.40;;;27.30;42.50;;;;;;4979656;28;87960;-48
2023/07/02 08:50:54;;;;;;;2.53;1.60;;;27.30;42.60;;;;;;4987105;28;88284;-48
2023/07/02 08:53:29;;;;;;;1.70;1.00;;;27.40;42.70;;;;;;4987434;28;88043;-47
2023/07/02 08:55:57;;;;;;;1.77;1.20;;;27.40;42.70;;;;;;4978090;28;88200;-47
2023/07/02 08:58:26;;;;;;;5.23;1.50;;;27.30;42.70;;;;;;4977949;28;88872;-47
2023/07/02 09:01:05;;;;;;;1.37;0.90;;;27.30;42.80;;;;;;4995454;28;88320;-48
2023/07/02 09:03:37;;;;;;;2.03;1.17;;;27.30;42.90;;;;;;4985791;28;88492;-48
2023/07/02 09:06:05;;;;;;;2.47;1.37;;;27.30;42.90;;;;;;4977912;28;87948;-47
2023/07/02 09:08:34;;;;;;;4.23;1.50;;;27.40;43.00;;;;;;4977609;28;88676;-48
2023/07/02 09:11:07;;;;;;;3.27;1.73;;;27.40;43.00;;;;;;4976862;28;87715;-47
2023/07/02 09:13:46;;;;;;;3.30;1.40;;;27.40;43.00;;;;;;4978966;28;88529;-48
2023/07/02 09:16:24;;;;;;;4.07;1.60;;;27.40;43.10;;;;;;4978315;28;87918;-48
2023/07/02 09:18:59;;;;;;;1.13;1.00;;;27.40;43.20;;;;;;4995780;28;87793;-47
2023/07/02 09:21:28;;;;;;;4.17;1.40;;;27.40;43.20;;;;;;4978126;28;87624;-47
2023/07/02 09:23:57;;;;;;;0.83;0.83;;;27.40;43.20;;;;;;4981719;28;90103;-47
2023/07/02 09:26:25;;;;;;;1.43;1.27;;;27.40;43.30;;;;;;4978539;28;88977;-47
2023/07/02 09:29:01;;;;;;;3.93;1.37;;;27.40;43.30;;;;;;4977725;28;88548;-48
2023/07/02 09:31:30;;;;;;;2.43;1.27;;;27.40;43.30;;;;;;4978373;28;87669;-47
2023/07/02 09:34:04;;;;;;;1.40;1.30;;;27.40;43.40;;;;;;4997009;28;88573;-47
2023/07/02 09:36:32;;;;;;;1.47;1.37;;;27.40;43.40;;;;;;4982790;28;87953;-47
2023/07/02 09:39:00;;;;;;;3.13;1.27;;;27.40;43.40;;;;;;4997501;28;87780;-47
2023/07/02 09:41:29;;;;;;;1.70;1.40;;;27.40;43.50;;;;;;4977575;28;88109;-48
2023/07/02 09:43:57;;;;;;;3.87;1.40;;;27.40;43.50;;;;;;4977270;28;88477;-49
2023/07/02 09:46:25;;;;;;;2.17;1.13;;;27.50;43.50;;;;;;4993464;28;89208;-47
2023/07/02 09:48:53;;;;;;;1.50;1.10;;;27.50;43.50;;;;;;4982853;28;88890;-47
2023/07/02 09:51:23;;;;;;;4.47;1.90;;;27.50;43.50;;;;;;5000207;28;87841;-48
2023/07/02 09:53:52;;;;;;;3.43;1.43;;;27.50;43.50;;;;;;4992028;28;89880;-47
2023/07/02 09:56:21;;;;;;;1.63;1.37;;;27.60;43.50;;;;;;4996914;28;87732;-48
2023/07/02 09:58:49;;;;;;;2.57;1.70;;;27.60;43.60;;;;;;4993377;28;88801;-48
2023/07/02 10:01:17;;;;;;;7.77;3.00;;;27.70;43.80;;;;;;4996825;28;87795;-49
2023/07/02 10:03:48;;;;;;;9.90;3.87;;;27.70;44.00;;;;;;4986956;28;89266;-48
2023/07/02 10:06:17;;;;;;;13.63;3.47;;;27.80;44.10;;;;;;5000459;28;88407;-48
2023/07/02 10:08:55;;;;;;;6.23;2.93;;;27.80;44.40;;;;;;4995341;28;87784;-48
2023/07/02 10:11:34;;;;;;;3.33;2.67;;;27.90;44.70;;;;;;4999305;28;87536;-47
2023/07/02 10:14:02;;;;;;;7.43;3.37;;;28.00;45.00;;;;;;4989505;28;87747;-48
2023/07/02 10:16:31;;;;;;;9.10;2.63;;;28.00;45.10;;;;;;4980308;28;88929;-48
2023/07/02 10:19:10;;;;;;;6.27;2.40;;;28.00;45.10;;;;;;4991308;28;89900;-48
2023/07/02 10:21:38;;;;;;;7.37;3.07;;;28.00;45.20;;;;;;4983620;28;87553;-48
2023/07/02 10:24:13;;;;;;;4.70;2.70;;;28.10;45.30;;;;;;4983107;28;90203;-48
2023/07/02 10:26:53;;;;;;;9.37;2.77;;;28.00;45.30;;;;;;4980588;28;89090;-48
2023/07/02 10:29:21;;;;;;;5.83;2.30;;;28.00;45.30;;;;;;4980747;28;87506;-48
2023/07/02 10:31:50;;;;;;;3.20;2.53;;;28.10;45.30;;;;;;4980282;28;88172;-48
2023/07/02 10:34:28;;;;;;;4.03;1.93;;;28.00;45.20;;;;;;4982001;28;88682;-48
2023/07/02 10:36:56;;;;;;;3.17;2.00;;;28.10;45.20;;;;;;4990436;28;88542;-48
2023/07/02 10:39:26;;;;;;;2.87;1.77;;;28.10;45.20;;;;;;4999859;28;88898;-48
2023/07/02 10:41:54;;;;;;;3.03;1.97;;;28.10;45.10;;;;;;4986970;28;87862;-48
2023/07/02 10:44:23;;;;;;;4.67;2.00;;;28.10;45.00;;;;;;4984421;28;89828;-48
2023/07/02 10:46:51;;;;;;;6.33;2.40;;;28.10;44.80;;;;;;4998127;28;87922;-48
2023/07/02 10:49:20;;;;;;;4.80;2.17;;;28.10;44.80;;;;;;4995907;28;87540;-48
2023/07/02 10:51:58;;;;;;;7.67;2.13;;;28.10;44.70;;;;;;4981651;28;87924;-48
2023/07/02 10:54:39;;;;;;;4.40;2.57;;;28.10;44.60;;;;;;4983331;28;88801;-48
2023/07/02 10:57:07;;;;;;;3.03;2.20;;;28.20;44.60;;;;;;5000173;28;89005;-48
2023/07/02 10:59:35;;;;;;;2.20;1.90;;;28.20;44.50;;;;;;4997903;28;89005;-48
2023/07/02 11:02:03;;;;;;;4.23;1.97;;;28.20;44.50;;;;;;4984780;28;87712;-48
2023/07/02 11:04:31;;;;;;;4.83;2.23;;;28.20;44.50;;;;;;4984685;28;88596;-48
2023/07/02 11:07:00;;;;;;;4.73;2.47;;;28.20;44.40;;;;;;4998934;28;90181;-48
2023/07/02 11:09:29;;;;;;;3.87;2.37;;;28.20;44.40;;;;;;4995475;28;89949;-48
2023/07/02 11:11:59;;;;;;;5.83;2.47;;;28.20;44.40;;;;;;4988776;28;88076;-48
2023/07/02 11:14:29;;;;;;;5.53;3.23;;;28.20;44.30;;;;;;4995022;28;88853;-47
2023/07/02 11:16:57;;;;;;;5.03;3.07;;;28.20;44.20;;;;;;5000015;28;88156;-47
2023/07/02 11:19:26;;;;;;;8.60;2.80;;;28.20;44.80;;;;;;4996750;28;87478;-47
2023/07/02 11:21:56;;;;;;;3.70;2.47;;;28.20;44.10;;;;;;4985064;28;89074;-48
2023/07/02 11:24:32;;;;;;;6.10;2.87;;;28.20;44.10;;;;;;4993343;28;88671;-47
2023/07/02 11:27:01;;;;;;;4.73;2.43;;;28.20;44.00;;;;;;4999238;28;88279;-47
2023/07/02 11:29:29;;;;;;;7.30;3.37;;;28.20;43.90;;;;;;4997736;28;90072;-51
2023/07/02 11:32:06;;;;;;;4.30;2.10;;;28.20;43.80;;;;;;4979481;28;87989;-51
2023/07/02 11:34:34;;;;;;;7.93;2.77;;;28.20;43.80;;;;;;4982979;28;89770;-61
2023/07/02 11:37:03;;;;;;;3.60;1.87;;;28.30;43.90;;;;;;4978843;28;89365;-51
2023/07/02 11:39:32;;;;;;;4.90;2.57;;;28.30;43.80;;;;;;4979797;28;88903;-51
2023/07/02 11:42:01;;;;;;;3.70;1.67;;;28.30;43.80;;;;;;4999510;28;88949;-51
2023/07/02 11:44:29;;;;;;;4.40;1.93;;;28.30;43.70;;;;;;4997286;28;87820;-51
2023/07/02 11:46:57;;;;;;;5.00;2.67;;;28.30;43.70;;;;;;4998726;28;87424;-51
2023/07/02 11:49:25;;;;;;;3.57;2.00;;;28.30;43.50;;;;;;4999218;28;87557;-51
2023/07/02 11:51:53;;;;;;;4.00;2.43;;;28.30;43.40;;;;;;4979983;28;87489;-51
2023/07/02 11:54:21;;;;;;;4.90;2.20;;;28.30;43.40;;;;;;4987550;28;88762;-51
2023/07/02 11:56:51;;;;;;;5.33;1.80;;;28.30;43.40;;;;;;4979030;28;90308;-51
2023/07/02 11:59:19;;;;;;;2.90;2.10;;;28.30;43.20;;;;;;4988740;28;88573;-51
2023/07/02 12:01:47;;;;;;;4.87;2.10;;;28.30;43.00;;;;;;5002584;28;87668;-51
2023/07/02 12:04:16;;;;;;;3.93;1.80;;;28.20;42.70;;;;;;5000453;28;87381;-51
2023/07/02 12:06:44;;;;;;;2.90;1.47;;;28.20;42.50;;;;;;5002046;28;87422;-51
2023/07/02 12:09:12;;;;;;;3.87;1.80;;;28.20;42.30;;;;;;5002600;28;87908;-51
2023/07/02 12:11:41;;;;;;;3.30;1.97;;;28.20;42.10;;;;;;4987354;28;87468;-51
2023/07/02 12:14:11;;;;;;;2.77;2.00;;;28.20;41.90;;;;;;4981911;28;88405;-50
2023/07/02 12:16:39;;;;;;;3.57;2.00;;;28.20;41.70;;;;;;4981620;28;88298;-51
2023/07/02 12:19:07;;;;;;;2.60;1.70;;;28.10;41.50;;;;;;4984451;28;87633;-50
2023/07/02 12:21:35;;;;;;;4.30;2.20;;;28.10;41.40;;;;;;4981342;28;87745;-51
2023/07/02 12:24:08;;;;;;;5.53;2.07;;;28.10;41.20;;;;;;4981302;28;88708;-51
2023/07/02 12:26:36;;;;;;;2.73;1.77;;;28.10;41.00;;;;;;4981773;28;88067;-51
2023/07/02 12:29:05;;;;;;;3.93;2.00;;;28.10;40.90;;;;;;4981654;28;88628;-51
2023/07/02 12:31:34;;;;;;;5.57;2.30;;;28.10;40.70;;;;;;4981955;28;87724;-51
2023/07/02 12:34:03;;;;;;;3.70;1.70;;;28.10;40.60;;;;;;4981248;28;89641;-51
2023/07/02 12:36:32;;;;;;;3.30;1.60;;;28.10;40.40;;;;;;4981350;28;89052;-51
2023/07/02 12:39:00;;;;;;;3.63;1.23;;;28.10;40.20;;;;;;4981731;28;88141;-50
2023/07/02 12:41:29;;;;;;;4.40;1.20;;;28.10;40.10;;;;;;4981787;28;87743;-51
2023/07/02 12:43:57;;;;;;;3.17;1.97;;;28.10;39.90;;;;;;4981125;28;87545;-51
2023/07/02 12:46:25;;;;;;;4.53;1.63;;;28.00;39.80;;;;;;4980930;28;88931;-51
2023/07/02 12:48:55;;;;;;;2.27;1.40;;;28.00;39.60;;;;;;4981005;28;89042;-51
2023/07/02 12:51:23;;;;;;;1.70;1.23;;;28.00;39.40;;;;;;4981313;28;87222;-51
2023/07/02 12:53:51;;;;;;;4.77;1.60;;;28.00;39.30;;;;;;4981180;28;88857;-51
2023/07/02 12:56:20;;;;;;;3.20;1.47;;;28.00;39.20;;;;;;4981323;28;87847;-51